sensor_id;sensor_type;location;lat;lon;timestamp;temperature;humidity
67890;DHT22;54685;52.082;5.426;2023-05-20T00:01:24;12.50;99.90
67890;DHT22;54685;52.082;5.426;2023-05-20T00:03:51;12.50;99.90
67890;DHT22;54685;52.082;5.426;2023-05-20T00:06:19;12.50;99.90
67890;DHT22;54685;52.082;5.426;2023-05-20T00:08:46;12.50;99.90
67890;DHT22;54685;52.082;5.426;2023-05-20T00:11:13;12.50;99.90
67890;DHT22;54685;52.082;5.426;2023-05-20T00:13:40;12.50;99.90
67890;DHT22;54685;52.082;5.426;2023-05-20T00:16:07;12.50;99.90
67890;DHT22;54685;52.082;5.426;2023-05-20T00:18:34;12.30;99.90
67890;DHT22;54685;52.082;5.426;2023-05-20T00:21:01;12.30;99.90
67890;DHT22;54685;52.082;5.426;2023-05-20T00:23:28;12.30;99.90
67890;DHT22;54685;52.082;5.426;2023-05-20T00:25:55;12.20;99.90
67890;DHT22;54685;52.082;5.426;2023-05-20T00:28:26;12.10;99.90
67890;DHT22;54685;52.082;5.426;2023-05-20T00:30:53;12.10;99.90
67890;DHT22;54685;52.082;5.426;2023-05-20T00:33:20;12.00;99.90
67890;DHT22;54685;52.082;5.426;2023-05-20T00:35:47;12.10;99.90
67890;DHT22;54685;52.082;5.426;2023-05-20T00:38:14;12.00;99.90
67890;DHT22;54685;52.082;5.426;2023-05-20T00:40:41;12.00;99.90
67890;DHT22;54685;52.082;5.426;2023-05-20T00:43:08;11.90;99.90
67890;DHT22;54685;52.082;5.426;2023-05-20T00:45:36;11.80;99.90
67890;DHT22;54685;52.082;5.426;2023-05-20T00:48:04;11.90;99.90
67890;DHT22;54685;52.082;5.426;2023-05-20T00:50:31;11.90;99.90
67890;DHT22;54685;52.082;5.426;2023-05-20T00:52:58;11.80;99.90
67890;DHT22;54685;52.082;5.426;2023-05-20T00:55:25;11.80;99.90
67890;DHT22;54685;52.082;5.426;2023-05-20T00:57:53;11.90;99.90
67890;DHT22;54685;52.082;5.426;2023-05-20T01:00:20;11.80;99.90
67890;DHT22;54685;52.082;5.426;2023-05-20T01:02:47;11.80;99.90
67890;DHT22;54685;52.082;5.426;2023-05-20T01:05:14;11.70;99.90
67890;DHT22;54685;52.082;5.426;2023-05-20T01:07:41;11.70;99.90
67890;DHT22;54685;52.082;5.426;2023-05-20T01:10:09;11.60;99.90
67890;DHT22;54685;52.082;5.426;2023-05-20T01:12:39;11.70;99.90
67890;DHT22;54685;52.082;5.426;2023-05-20T01:15:09;11.70;99.90
67890;DHT22;54685;52.082;5.426;2023-05-20T01:17:45;11.80;99.90
67890;DHT22;54685;52.082;5.426;2023-05-20T01:20:14;11.70;99.90
67890;DHT22;54685;52.082;5.426;2023-05-20T01:22:55;11.70;99.90
67890;DHT22;54685;52.082;5.426;2023-05-20T01:25:22;11.80;99.90
67890;DHT22;54685;52.082;5.426;2023-05-20T01:27:51;11.70;99.90
67890;DHT22;54685;52.082;5.426;2023-05-20T01:30:19;11.70;99.90
67890;DHT22;54685;52.082;5.426;2023-05-20T01:32:51;11.60;99.90
67890;DHT22;54685;52.082;5.426;2023-05-20T01:35:21;11.60;99.90
67890;DHT22;54685;52.082;5.426;2023-05-20T01:37:50;11.60;99.90
67890;DHT22;54685;52.082;5.426;2023-05-20T01:40:19;11.60;99.90
67890;DHT22;54685;52.082;5.426;2023-05-20T01:42:47;11.50;99.90
67890;DHT22;54685;52.082;5.426;2023-05-20T01:45:19;11.50;99.90
67890;DHT22;54685;52.082;5.426;2023-05-20T01:47:46;11.40;99.90
67890;DHT22;54685;52.082;5.426;2023-05-20T01:50:13;11.40;99.90
67890;DHT22;54685;52.082;5.426;2023-05-20T01:52:40;11.40;99.90
67890;DHT22;54685;52.082;5.426;2023-05-20T01:55:07;11.40;99.90
67890;DHT22;54685;52.082;5.426;2023-05-20T01:57:34;11.40;99.90
67890;DHT22;54685;52.082;5.426;2023-05-20T02:00:03;11.40;99.90
67890;DHT22;54685;52.082;5.426;2023-05-20T02:02:38;11.40;99.90
67890;DHT22;54685;52.082;5.426;2023-05-20T02:05:08;11.40;99.90
67890;DHT22;54685;52.082;5.426;2023-05-20T02:07:36;11.40;99.90
67890;DHT22;54685;52.082;5.426;2023-05-20T02:10:03;11.30;99.90
67890;DHT22;54685;52.082;5.426;2023-05-20T02:12:30;11.30;99.90
67890;DHT22;54685;52.082;5.426;2023-05-20T02:14:58;11.30;99.90
67890;DHT22;54685;52.082;5.426;2023-05-20T02:17:24;11.30;99.90
67890;DHT22;54685;52.082;5.426;2023-05-20T02:19:52;11.30;99.90
67890;DHT22;54685;52.082;5.426;2023-05-20T02:22:19;11.20;99.90
67890;DHT22;54685;52.082;5.426;2023-05-20T02:24:46;11.20;99.90
67890;DHT22;54685;52.082;5.426;2023-05-20T02:27:14;11.10;99.90
67890;DHT22;54685;52.082;5.426;2023-05-20T02:29:42;11.10;99.90
67890;DHT22;54685;52.082;5.426;2023-05-20T02:32:10;11.10;99.90
67890;DHT22;54685;52.082;5.426;2023-05-20T02:34:38;11.10;99.90
67890;DHT22;54685;52.082;5.426;2023-05-20T02:37:05;11.10;99.90
67890;DHT22;54685;52.082;5.426;2023-05-20T02:39:32;11.10;99.90
67890;DHT22;54685;52.082;5.426;2023-05-20T02:41:59;11.10;99.90
67890;DHT22;54685;52.082;5.426;2023-05-20T02:44:26;11.10;99.90
67890;DHT22;54685;52.082;5.426;2023-05-20T02:46:53;11.00;99.90
67890;DHT22;54685;52.082;5.426;2023-05-20T02:49:21;11.10;99.90
67890;DHT22;54685;52.082;5.426;2023-05-20T02:51:51;11.00;99.90
67890;DHT22;54685;52.082;5.426;2023-05-20T02:54:18;11.00;99.90
67890;DHT22;54685;52.082;5.426;2023-05-20T02:56:45;11.00;99.90
67890;DHT22;54685;52.082;5.426;2023-05-20T02:59:12;11.00;99.90
67890;DHT22;54685;52.082;5.426;2023-05-20T03:01:39;11.00;99.90
67890;DHT22;54685;52.082;5.426;2023-05-20T03:04:07;10.90;99.90
67890;DHT22;54685;52.082;5.426;2023-05-20T03:06:36;10.90;99.90
67890;DHT22;54685;52.082;5.426;2023-05-20T03:09:03;10.90;99.90
67890;DHT22;54685;52.082;5.426;2023-05-20T03:11:31;10.90;99.90
67890;DHT22;54685;52.082;5.426;2023-05-20T03:13:58;10.80;99.90
67890;DHT22;54685;52.082;5.426;2023-05-20T03:16:26;10.90;99.90
67890;DHT22;54685;52.082;5.426;2023-05-20T03:18:57;10.90;99.90
67890;DHT22;54685;52.082;5.426;2023-05-20T03:21:24;10.80;99.90
67890;DHT22;54685;52.082;5.426;2023-05-20T03:23:51;10.80;99.90
67890;DHT22;54685;52.082;5.426;2023-05-20T03:26:18;10.80;99.90
67890;DHT22;54685;52.082;5.426;2023-05-20T03:28:47;10.80;99.90
67890;DHT22;54685;52.082;5.426;2023-05-20T03:31:15;10.80;99.90
67890;DHT22;54685;52.082;5.426;2023-05-20T03:33:44;10.80;99.90
67890;DHT22;54685;52.082;5.426;2023-05-20T03:36:11;10.80;99.90
67890;DHT22;54685;52.082;5.426;2023-05-20T03:38:38;10.70;99.90
67890;DHT22;54685;52.082;5.426;2023-05-20T03:41:05;10.80;99.90
67890;DHT22;54685;52.082;5.426;2023-05-20T03:43:33;10.70;99.90
67890;DHT22;54685;52.082;5.426;2023-05-20T03:46:00;10.70;99.90
67890;DHT22;54685;52.082;5.426;2023-05-20T03:48:27;10.70;99.90
67890;DHT22;54685;52.082;5.426;2023-05-20T03:50:54;10.70;99.90
67890;DHT22;54685;52.082;5.426;2023-05-20T03:53:22;10.60;99.90
67890;DHT22;54685;52.082;5.426;2023-05-20T03:55:48;10.60;99.90
67890;DHT22;54685;52.082;5.426;2023-05-20T03:58:16;10.60;99.90
67890;DHT22;54685;52.082;5.426;2023-05-20T04:00:43;10.60;99.90
67890;DHT22;54685;52.082;5.426;2023-05-20T04:03:10;10.50;99.90
67890;DHT22;54685;52.082;5.426;2023-05-20T04:05:39;10.60;99.90
67890;DHT22;54685;52.082;5.426;2023-05-20T04:08:14;10.50;99.90
67890;DHT22;54685;52.082;5.426;2023-05-20T04:10:41;10.60;99.90
67890;DHT22;54685;52.082;5.426;2023-05-20T04:13:10;10.60;99.90
67890;DHT22;54685;52.082;5.426;2023-05-20T04:15:38;10.60;99.90
67890;DHT22;54685;52.082;5.426;2023-05-20T04:18:04;10.60;99.90
67890;DHT22;54685;52.082;5.426;2023-05-20T04:20:32;10.60;99.90
67890;DHT22;54685;52.082;5.426;2023-05-20T04:22:59;10.70;99.90
67890;DHT22;54685;52.082;5.426;2023-05-20T04:25:26;10.80;99.90
67890;DHT22;54685;52.082;5.426;2023-05-20T04:27:54;10.80;99.90
67890;DHT22;54685;52.082;5.426;2023-05-20T04:30:23;10.80;99.90
67890;DHT22;54685;52.082;5.426;2023-05-20T04:32:51;10.80;99.90
67890;DHT22;54685;52.082;5.426;2023-05-20T04:35:18;10.80;99.90
67890;DHT22;54685;52.082;5.426;2023-05-20T04:37:47;10.70;99.90
67890;DHT22;54685;52.082;5.426;2023-05-20T04:40:14;10.70;99.90
67890;DHT22;54685;52.082;5.426;2023-05-20T04:42:42;10.70;99.90
67890;DHT22;54685;52.082;5.426;2023-05-20T04:45:11;10.70;99.90
67890;DHT22;54685;52.082;5.426;2023-05-20T04:47:40;10.80;99.90
67890;DHT22;54685;52.082;5.426;2023-05-20T04:50:08;10.80;99.90
67890;DHT22;54685;52.082;5.426;2023-05-20T04:52:39;10.80;99.90
67890;DHT22;54685;52.082;5.426;2023-05-20T04:55:08;10.80;99.90
67890;DHT22;54685;52.082;5.426;2023-05-20T04:57:37;10.80;99.90
67890;DHT22;54685;52.082;5.426;2023-05-20T05:00:10;10.80;99.90
67890;DHT22;54685;52.082;5.426;2023-05-20T05:02:39;10.90;99.90
67890;DHT22;54685;52.082;5.426;2023-05-20T05:05:06;10.90;99.90
67890;DHT22;54685;52.082;5.426;2023-05-20T05:07:34;10.90;99.90
67890;DHT22;54685;52.082;5.426;2023-05-20T05:10:01;11.00;99.90
67890;DHT22;54685;52.082;5.426;2023-05-20T05:12:30;11.00;99.90
67890;DHT22;54685;52.082;5.426;2023-05-20T05:14:57;11.00;99.90
67890;DHT22;54685;52.082;5.426;2023-05-20T05:17:26;11.10;99.90
67890;DHT22;54685;52.082;5.426;2023-05-20T05:19:55;11.00;99.90
67890;DHT22;54685;52.082;5.426;2023-05-20T05:22:24;11.10;99.90
67890;DHT22;54685;52.082;5.426;2023-05-20T05:24:51;11.10;99.90
67890;DHT22;54685;52.082;5.426;2023-05-20T05:27:20;11.20;99.90
67890;DHT22;54685;52.082;5.426;2023-05-20T05:29:50;11.30;99.90
67890;DHT22;54685;52.082;5.426;2023-05-20T05:32:18;11.30;99.90
67890;DHT22;54685;52.082;5.426;2023-05-20T05:34:45;11.40;99.90
67890;DHT22;54685;52.082;5.426;2023-05-20T05:37:12;11.40;99.90
67890;DHT22;54685;52.082;5.426;2023-05-20T05:39:40;11.50;99.90
67890;DHT22;54685;52.082;5.426;2023-05-20T05:42:07;11.60;99.90
67890;DHT22;54685;52.082;5.426;2023-05-20T05:44:34;11.60;99.90
67890;DHT22;54685;52.082;5.426;2023-05-20T05:47:04;11.70;99.90
67890;DHT22;54685;52.082;5.426;2023-05-20T05:49:32;11.80;99.90
67890;DHT22;54685;52.082;5.426;2023-05-20T05:51:59;11.80;99.90
67890;DHT22;54685;52.082;5.426;2023-05-20T05:54:27;11.90;99.90
67890;DHT22;54685;52.082;5.426;2023-05-20T05:56:55;12.00;99.90
67890;DHT22;54685;52.082;5.426;2023-05-20T05:59:24;12.10;99.90
67890;DHT22;54685;52.082;5.426;2023-05-20T06:01:52;12.20;99.90
67890;DHT22;54685;52.082;5.426;2023-05-20T06:04:19;12.30;99.90
67890;DHT22;54685;52.082;5.426;2023-05-20T06:06:47;12.40;99.90
67890;DHT22;54685;52.082;5.426;2023-05-20T06:09:15;12.50;99.90
67890;DHT22;54685;52.082;5.426;2023-05-20T06:11:42;12.60;99.90
67890;DHT22;54685;52.082;5.426;2023-05-20T06:14:10;12.70;99.90
67890;DHT22;54685;52.082;5.426;2023-05-20T06:16:37;12.70;99.90
67890;DHT22;54685;52.082;5.426;2023-05-20T06:19:05;12.90;99.90
67890;DHT22;54685;52.082;5.426;2023-05-20T06:21:35;13.00;99.90
67890;DHT22;54685;52.082;5.426;2023-05-20T06:24:02;13.00;99.90
67890;DHT22;54685;52.082;5.426;2023-05-20T06:26:30;13.20;99.90
67890;DHT22;54685;52.082;5.426;2023-05-20T06:28:57;13.20;99.90
67890;DHT22;54685;52.082;5.426;2023-05-20T06:31:25;13.30;99.90
67890;DHT22;54685;52.082;5.426;2023-05-20T06:33:52;13.40;99.90
67890;DHT22;54685;52.082;5.426;2023-05-20T06:36:19;13.40;99.90
67890;DHT22;54685;52.082;5.426;2023-05-20T06:38:46;13.50;99.90
67890;DHT22;54685;52.082;5.426;2023-05-20T06:41:15;13.60;99.90
67890;DHT22;54685;52.082;5.426;2023-05-20T06:43:42;13.70;99.90
67890;DHT22;54685;52.082;5.426;2023-05-20T06:46:27;13.70;99.90
67890;DHT22;54685;52.082;5.426;2023-05-20T06:48:59;13.80;99.90
67890;DHT22;54685;52.082;5.426;2023-05-20T06:51:29;13.90;99.90
67890;DHT22;54685;52.082;5.426;2023-05-20T06:53:56;14.00;99.90
67890;DHT22;54685;52.082;5.426;2023-05-20T06:56:23;14.10;99.90
67890;DHT22;54685;52.082;5.426;2023-05-20T06:58:50;14.10;99.90
67890;DHT22;54685;52.082;5.426;2023-05-20T07:01:17;14.20;99.90
67890;DHT22;54685;52.082;5.426;2023-05-20T07:03:45;14.30;99.90
67890;DHT22;54685;52.082;5.426;2023-05-20T07:06:13;14.40;99.90
67890;DHT22;54685;52.082;5.426;2023-05-20T07:08:40;14.50;99.90
67890;DHT22;54685;52.082;5.426;2023-05-20T07:11:07;14.70;99.90
67890;DHT22;54685;52.082;5.426;2023-05-20T07:13:34;14.80;99.90
67890;DHT22;54685;52.082;5.426;2023-05-20T07:16:01;14.90;99.90
67890;DHT22;54685;52.082;5.426;2023-05-20T07:18:28;14.90;99.90
67890;DHT22;54685;52.082;5.426;2023-05-20T07:20:56;15.00;99.90
67890;DHT22;54685;52.082;5.426;2023-05-20T07:23:56;15.10;99.90
67890;DHT22;54685;52.082;5.426;2023-05-20T07:26:23;15.20;99.90
67890;DHT22;54685;52.082;5.426;2023-05-20T07:28:50;15.30;98.80
67890;DHT22;54685;52.082;5.426;2023-05-20T07:31:17;15.40;99.30
67890;DHT22;54685;52.082;5.426;2023-05-20T07:33:44;15.40;98.60
67890;DHT22;54685;52.082;5.426;2023-05-20T07:36:11;15.60;98.40
67890;DHT22;54685;52.082;5.426;2023-05-20T07:38:40;15.70;97.90
67890;DHT22;54685;52.082;5.426;2023-05-20T07:41:22;15.80;94.70
67890;DHT22;54685;52.082;5.426;2023-05-20T07:43:49;15.90;95.60
67890;DHT22;54685;52.082;5.426;2023-05-20T07:46:19;16.00;94.10
67890;DHT22;54685;52.082;5.426;2023-05-20T07:48:46;16.00;94.00
67890;DHT22;54685;52.082;5.426;2023-05-20T07:51:14;16.10;95.30
67890;DHT22;54685;52.082;5.426;2023-05-20T07:53:41;16.30;92.20
67890;DHT22;54685;52.082;5.426;2023-05-20T07:56:09;16.50;91.10
67890;DHT22;54685;52.082;5.426;2023-05-20T07:58:36;16.60;89.40
67890;DHT22;54685;52.082;5.426;2023-05-20T08:01:04;16.60;85.80
67890;DHT22;54685;52.082;5.426;2023-05-20T08:03:30;16.70;89.10
67890;DHT22;54685;52.082;5.426;2023-05-20T08:06:03;16.80;90.30
67890;DHT22;54685;52.082;5.426;2023-05-20T08:08:30;16.80;90.90
67890;DHT22;54685;52.082;5.426;2023-05-20T08:11:02;17.00;89.80
67890;DHT22;54685;52.082;5.426;2023-05-20T08:13:31;17.10;87.30
67890;DHT22;54685;52.082;5.426;2023-05-20T08:16:00;17.20;79.10
67890;DHT22;54685;52.082;5.426;2023-05-20T08:18:27;17.50;79.30
67890;DHT22;54685;52.082;5.426;2023-05-20T08:20:55;17.50;77.50
67890;DHT22;54685;52.082;5.426;2023-05-20T08:23:24;17.60;76.60
67890;DHT22;54685;52.082;5.426;2023-05-20T08:25:52;17.70;76.20
67890;DHT22;54685;52.082;5.426;2023-05-20T08:28:21;17.90;75.30
67890;DHT22;54685;52.082;5.426;2023-05-20T08:30:49;18.00;66.00
67890;DHT22;54685;52.082;5.426;2023-05-20T08:33:17;18.20;66.40
67890;DHT22;54685;52.082;5.426;2023-05-20T08:35:45;18.20;64.80
67890;DHT22;54685;52.082;5.426;2023-05-20T08:38:12;18.30;63.10
67890;DHT22;54685;52.082;5.426;2023-05-20T08:40:39;18.30;65.90
67890;DHT22;54685;52.082;5.426;2023-05-20T08:43:08;18.40;65.90
67890;DHT22;54685;52.082;5.426;2023-05-20T08:45:37;18.60;65.40
67890;DHT22;54685;52.082;5.426;2023-05-20T08:48:14;18.80;62.90
67890;DHT22;54685;52.082;5.426;2023-05-20T08:50:48;18.90;61.10
67890;DHT22;54685;52.082;5.426;2023-05-20T08:53:16;18.90;59.50
67890;DHT22;54685;52.082;5.426;2023-05-20T08:55:46;19.00;60.70
67890;DHT22;54685;52.082;5.426;2023-05-20T08:58:15;19.10;59.20
67890;DHT22;54685;52.082;5.426;2023-05-20T09:00:43;19.20;59.60
67890;DHT22;54685;52.082;5.426;2023-05-20T09:03:36;19.40;58.60
67890;DHT22;54685;52.082;5.426;2023-05-20T09:06:08;19.40;56.50
67890;DHT22;54685;52.082;5.426;2023-05-20T09:08:36;19.50;56.60
67890;DHT22;54685;52.082;5.426;2023-05-20T09:11:03;19.60;57.90
67890;DHT22;54685;52.082;5.426;2023-05-20T09:13:30;19.80;57.80
67890;DHT22;54685;52.082;5.426;2023-05-20T09:16:00;19.80;55.60
67890;DHT22;54685;52.082;5.426;2023-05-20T09:18:28;20.00;55.40
67890;DHT22;54685;52.082;5.426;2023-05-20T09:20:55;20.20;55.60
67890;DHT22;54685;52.082;5.426;2023-05-20T09:23:23;20.40;55.60
67890;DHT22;54685;52.082;5.426;2023-05-20T09:25:51;20.60;54.30
67890;DHT22;54685;52.082;5.426;2023-05-20T09:28:21;20.70;51.60
67890;DHT22;54685;52.082;5.426;2023-05-20T09:30:58;20.80;54.70
67890;DHT22;54685;52.082;5.426;2023-05-20T09:33:29;20.80;52.40
67890;DHT22;54685;52.082;5.426;2023-05-20T09:36:01;21.00;50.70
67890;DHT22;54685;52.082;5.426;2023-05-20T09:38:30;21.20;51.40
67890;DHT22;54685;52.082;5.426;2023-05-20T09:41:06;21.30;49.50
67890;DHT22;54685;52.082;5.426;2023-05-20T09:43:35;21.30;49.00
67890;DHT22;54685;52.082;5.426;2023-05-20T09:46:03;21.30;49.50
67890;DHT22;54685;52.082;5.426;2023-05-20T09:48:31;21.30;49.20
67890;DHT22;54685;52.082;5.426;2023-05-20T09:51:00;21.00;50.00
67890;DHT22;54685;52.082;5.426;2023-05-20T09:53:28;21.10;51.90
67890;DHT22;54685;52.082;5.426;2023-05-20T09:55:55;21.30;51.00
67890;DHT22;54685;52.082;5.426;2023-05-20T09:58:23;21.70;52.70
67890;DHT22;54685;52.082;5.426;2023-05-20T10:00:51;22.10;50.50
67890;DHT22;54685;52.082;5.426;2023-05-20T10:03:24;22.10;48.20
67890;DHT22;54685;52.082;5.426;2023-05-20T10:08:41;22.50;47.10
67890;DHT22;54685;52.082;5.426;2023-05-20T10:16:56;22.90;48.50
67890;DHT22;54685;52.082;5.426;2023-05-20T10:19:29;23.10;47.50
67890;DHT22;54685;52.082;5.426;2023-05-20T10:21:57;23.20;46.10
67890;DHT22;54685;52.082;5.426;2023-05-20T10:27:00;23.30;46.70
67890;DHT22;54685;52.082;5.426;2023-05-20T10:29:28;23.40;46.50
67890;DHT22;54685;52.082;5.426;2023-05-20T10:31:55;23.30;44.90
67890;DHT22;54685;52.082;5.426;2023-05-20T10:34:23;23.30;45.80
67890;DHT22;54685;52.082;5.426;2023-05-20T10:39:28;23.40;44.70
67890;DHT22;54685;52.082;5.426;2023-05-20T10:42:05;23.60;44.60
67890;DHT22;54685;52.082;5.426;2023-05-20T10:44:43;23.60;43.20
67890;DHT22;54685;52.082;5.426;2023-05-20T10:47:10;23.60;44.00
67890;DHT22;54685;52.082;5.426;2023-05-20T10:49:44;23.70;44.40
67890;DHT22;54685;52.082;5.426;2023-05-20T10:52:16;23.90;43.30
67890;DHT22;54685;52.082;5.426;2023-05-20T10:54:54;24.00;43.00
67890;DHT22;54685;52.082;5.426;2023-05-20T10:57:22;24.20;43.10
67890;DHT22;54685;52.082;5.426;2023-05-20T10:59:49;24.40;42.80
67890;DHT22;54685;52.082;5.426;2023-05-20T11:02:18;24.20;42.80
67890;DHT22;54685;52.082;5.426;2023-05-20T11:04:48;24.30;43.40
67890;DHT22;54685;52.082;5.426;2023-05-20T11:07:28;24.30;43.00
67890;DHT22;54685;52.082;5.426;2023-05-20T11:09:56;24.20;43.00
67890;DHT22;54685;52.082;5.426;2023-05-20T11:12:24;24.30;42.00
67890;DHT22;54685;52.082;5.426;2023-05-20T11:14:52;24.30;42.20
67890;DHT22;54685;52.082;5.426;2023-05-20T11:17:19;24.00;42.10
67890;DHT22;54685;52.082;5.426;2023-05-20T11:19:47;23.50;43.10
67890;DHT22;54685;52.082;5.426;2023-05-20T11:22:14;23.80;43.40
67890;DHT22;54685;52.082;5.426;2023-05-20T11:24:41;23.80;41.70
67890;DHT22;54685;52.082;5.426;2023-05-20T11:27:08;24.00;41.80
67890;DHT22;54685;52.082;5.426;2023-05-20T11:29:35;24.10;42.50
67890;DHT22;54685;52.082;5.426;2023-05-20T11:32:02;24.20;42.90
67890;DHT22;54685;52.082;5.426;2023-05-20T11:34:36;24.50;44.40
67890;DHT22;54685;52.082;5.426;2023-05-20T11:37:08;24.40;42.10
67890;DHT22;54685;52.082;5.426;2023-05-20T11:39:36;24.70;42.40
67890;DHT22;54685;52.082;5.426;2023-05-20T11:42:06;24.90;42.10
67890;DHT22;54685;52.082;5.426;2023-05-20T11:44:34;25.10;41.20
67890;DHT22;54685;52.082;5.426;2023-05-20T11:47:01;25.30;41.90
67890;DHT22;54685;52.082;5.426;2023-05-20T11:49:29;25.30;40.70
67890;DHT22;54685;52.082;5.426;2023-05-20T11:51:56;25.00;40.50
67890;DHT22;54685;52.082;5.426;2023-05-20T11:54:24;24.80;41.40
67890;DHT22;54685;52.082;5.426;2023-05-20T11:56:53;24.70;40.90
67890;DHT22;54685;52.082;5.426;2023-05-20T11:59:23;24.70;40.10
67890;DHT22;54685;52.082;5.426;2023-05-20T12:01:49;24.40;41.90
67890;DHT22;54685;52.082;5.426;2023-05-20T12:04:16;24.50;41.60
67890;DHT22;54685;52.082;5.426;2023-05-20T12:06:44;24.70;42.20
67890;DHT22;54685;52.082;5.426;2023-05-20T12:09:12;24.70;41.40
67890;DHT22;54685;52.082;5.426;2023-05-20T12:11:39;24.50;40.90
67890;DHT22;54685;52.082;5.426;2023-05-20T12:14:07;24.50;41.40
67890;DHT22;54685;52.082;5.426;2023-05-20T12:16:36;24.30;40.80
67890;DHT22;54685;52.082;5.426;2023-05-20T12:19:04;24.00;42.20
67890;DHT22;54685;52.082;5.426;2023-05-20T12:21:31;23.90;43.00
67890;DHT22;54685;52.082;5.426;2023-05-20T12:23:58;24.00;43.10
67890;DHT22;54685;52.082;5.426;2023-05-20T12:26:28;24.30;42.80
67890;DHT22;54685;52.082;5.426;2023-05-20T12:28:56;24.60;41.10
67890;DHT22;54685;52.082;5.426;2023-05-20T12:31:24;24.60;41.40
67890;DHT22;54685;52.082;5.426;2023-05-20T12:33:51;24.50;42.10
67890;DHT22;54685;52.082;5.426;2023-05-20T12:36:18;24.30;42.50
67890;DHT22;54685;52.082;5.426;2023-05-20T12:38:45;24.20;42.20
67890;DHT22;54685;52.082;5.426;2023-05-20T12:41:12;24.10;42.60
67890;DHT22;54685;52.082;5.426;2023-05-20T12:43:39;23.90;41.60
67890;DHT22;54685;52.082;5.426;2023-05-20T12:46:07;23.50;43.10
67890;DHT22;54685;52.082;5.426;2023-05-20T12:48:34;23.40;43.30
67890;DHT22;54685;52.082;5.426;2023-05-20T12:51:01;23.60;44.10
67890;DHT22;54685;52.082;5.426;2023-05-20T12:53:28;23.60;43.60
67890;DHT22;54685;52.082;5.426;2023-05-20T12:55:55;23.50;44.10
67890;DHT22;54685;52.082;5.426;2023-05-20T12:58:22;23.40;43.30
67890;DHT22;54685;52.082;5.426;2023-05-20T13:00:49;23.30;44.40
67890;DHT22;54685;52.082;5.426;2023-05-20T13:03:15;23.00;43.20
67890;DHT22;54685;52.082;5.426;2023-05-20T13:05:43;22.80;45.40
67890;DHT22;54685;52.082;5.426;2023-05-20T13:08:10;22.80;45.10
67890;DHT22;54685;52.082;5.426;2023-05-20T13:10:38;22.70;45.60
67890;DHT22;54685;52.082;5.426;2023-05-20T13:13:05;22.90;45.40
67890;DHT22;54685;52.082;5.426;2023-05-20T13:15:32;22.90;45.90
67890;DHT22;54685;52.082;5.426;2023-05-20T13:17:59;23.20;44.90
67890;DHT22;54685;52.082;5.426;2023-05-20T13:20:28;23.20;45.30
67890;DHT22;54685;52.082;5.426;2023-05-20T13:22:55;23.30;44.40
67890;DHT22;54685;52.082;5.426;2023-05-20T13:25:22;23.40;45.30
67890;DHT22;54685;52.082;5.426;2023-05-20T13:27:49;23.50;45.80
67890;DHT22;54685;52.082;5.426;2023-05-20T13:30:16;23.50;44.60
67890;DHT22;54685;52.082;5.426;2023-05-20T13:32:43;23.50;44.10
67890;DHT22;54685;52.082;5.426;2023-05-20T13:35:10;23.40;44.70
67890;DHT22;54685;52.082;5.426;2023-05-20T13:37:38;23.40;44.70
67890;DHT22;54685;52.082;5.426;2023-05-20T13:40:05;23.30;44.60
67890;DHT22;54685;52.082;5.426;2023-05-20T13:42:33;23.30;44.70
67890;DHT22;54685;52.082;5.426;2023-05-20T13:45:02;23.30;45.10
67890;DHT22;54685;52.082;5.426;2023-05-20T13:47:29;23.30;44.90
67890;DHT22;54685;52.082;5.426;2023-05-20T13:49:56;23.20;44.40
67890;DHT22;54685;52.082;5.426;2023-05-20T13:52:23;23.30;45.10
67890;DHT22;54685;52.082;5.426;2023-05-20T13:54:50;23.20;45.10
67890;DHT22;54685;52.082;5.426;2023-05-20T13:57:17;23.20;45.60
67890;DHT22;54685;52.082;5.426;2023-05-20T13:59:43;23.20;44.40
67890;DHT22;54685;52.082;5.426;2023-05-20T14:02:10;23.00;44.80
67890;DHT22;54685;52.082;5.426;2023-05-20T14:04:37;22.90;44.80
67890;DHT22;54685;52.082;5.426;2023-05-20T14:07:06;22.90;45.80
67890;DHT22;54685;52.082;5.426;2023-05-20T14:09:35;22.90;44.80
67890;DHT22;54685;52.082;5.426;2023-05-20T14:12:03;22.80;45.40
67890;DHT22;54685;52.082;5.426;2023-05-20T14:14:30;22.90;45.50
67890;DHT22;54685;52.082;5.426;2023-05-20T14:16:57;23.00;46.00
67890;DHT22;54685;52.082;5.426;2023-05-20T14:19:25;23.10;45.20
67890;DHT22;54685;52.082;5.426;2023-05-20T14:21:52;23.00;44.60
67890;DHT22;54685;52.082;5.426;2023-05-20T14:24:19;22.80;44.70
67890;DHT22;54685;52.082;5.426;2023-05-20T14:26:49;22.70;44.80
67890;DHT22;54685;52.082;5.426;2023-05-20T14:29:16;22.70;45.00
67890;DHT22;54685;52.082;5.426;2023-05-20T14:31:43;22.70;45.20
67890;DHT22;54685;52.082;5.426;2023-05-20T14:34:10;22.70;44.90
67890;DHT22;54685;52.082;5.426;2023-05-20T14:36:37;22.70;45.20
67890;DHT22;54685;52.082;5.426;2023-05-20T14:39:05;22.70;46.00
67890;DHT22;54685;52.082;5.426;2023-05-20T14:41:31;22.80;46.40
67890;DHT22;54685;52.082;5.426;2023-05-20T14:43:58;22.90;46.70
67890;DHT22;54685;52.082;5.426;2023-05-20T14:46:25;22.90;45.60
67890;DHT22;54685;52.082;5.426;2023-05-20T14:48:52;22.80;44.90
67890;DHT22;54685;52.082;5.426;2023-05-20T14:51:19;22.70;45.30
67890;DHT22;54685;52.082;5.426;2023-05-20T14:53:46;22.90;46.00
67890;DHT22;54685;52.082;5.426;2023-05-20T14:56:13;22.90;46.70
67890;DHT22;54685;52.082;5.426;2023-05-20T14:58:40;22.90;46.50
67890;DHT22;54685;52.082;5.426;2023-05-20T15:01:06;22.90;46.50
67890;DHT22;54685;52.082;5.426;2023-05-20T15:03:33;22.80;46.00
67890;DHT22;54685;52.082;5.426;2023-05-20T15:06:00;22.90;46.20
67890;DHT22;54685;52.082;5.426;2023-05-20T15:08:28;22.80;46.10
67890;DHT22;54685;52.082;5.426;2023-05-20T15:10:54;22.50;46.90
67890;DHT22;54685;52.082;5.426;2023-05-20T15:13:22;22.60;47.00
67890;DHT22;54685;52.082;5.426;2023-05-20T15:15:49;22.60;47.20
67890;DHT22;54685;52.082;5.426;2023-05-20T15:18:15;22.90;47.10
67890;DHT22;54685;52.082;5.426;2023-05-20T15:20:42;23.10;46.30
67890;DHT22;54685;52.082;5.426;2023-05-20T15:23:10;23.20;45.50
67890;DHT22;54685;52.082;5.426;2023-05-20T15:25:37;23.10;44.70
67890;DHT22;54685;52.082;5.426;2023-05-20T15:28:04;22.80;44.50
67890;DHT22;54685;52.082;5.426;2023-05-20T15:30:31;22.60;45.30
67890;DHT22;54685;52.082;5.426;2023-05-20T15:32:58;22.40;45.70
67890;DHT22;54685;52.082;5.426;2023-05-20T15:35:25;22.30;47.20
67890;DHT22;54685;52.082;5.426;2023-05-20T15:37:52;22.20;46.40
67890;DHT22;54685;52.082;5.426;2023-05-20T15:40:20;22.10;46.80
67890;DHT22;54685;52.082;5.426;2023-05-20T15:42:47;22.30;48.40
67890;DHT22;54685;52.082;5.426;2023-05-20T15:45:14;22.10;47.70
67890;DHT22;54685;52.082;5.426;2023-05-20T15:47:41;22.00;47.10
67890;DHT22;54685;52.082;5.426;2023-05-20T15:50:09;21.90;47.10